sensor_id;sensor_type;location;lat;lon;timestamp;temperature;humidity
212;DHT22;16228;48.800;9.002;2023-03-03T00:01:18;0.50;96.90
212;DHT22;16228;48.800;9.002;2023-03-03T00:03:46;0.50;96.90
212;DHT22;16228;48.800;9.002;2023-03-03T00:06:14;0.50;96.90
212;DHT22;16228;48.800;9.002;2023-03-03T00:08:41;0.50;96.90
212;DHT22;16228;48.800;9.002;2023-03-03T00:11:09;0.50;96.90
212;DHT22;16228;48.800;9.002;2023-03-03T00:13:44;0.50;96.90
212;DHT22;16228;48.800;9.002;2023-03-03T00:16:22;0.50;96.90
212;DHT22;16228;48.800;9.002;2023-03-03T00:18:50;0.40;96.90
212;DHT22;16228;48.800;9.002;2023-03-03T00:21:27;0.40;96.90
212;DHT22;16228;48.800;9.002;2023-03-03T00:24:04;0.40;96.90
212;DHT22;16228;48.800;9.002;2023-03-03T00:26:39;0.50;96.90
212;DHT22;16228;48.800;9.002;2023-03-03T00:29:29;0.50;96.90
212;DHT22;16228;48.800;9.002;2023-03-03T00:32:11;0.40;96.90
212;DHT22;16228;48.800;9.002;2023-03-03T00:34:42;0.40;96.90
212;DHT22;16228;48.800;9.002;2023-03-03T00:37:22;0.40;96.90
212;DHT22;16228;48.800;9.002;2023-03-03T00:39:51;0.20;96.90
212;DHT22;16228;48.800;9.002;2023-03-03T00:42:18;0.20;96.90
212;DHT22;16228;48.800;9.002;2023-03-03T00:44:47;0.20;96.90
212;DHT22;16228;48.800;9.002;2023-03-03T00:47:36;0.20;96.90
212;DHT22;16228;48.800;9.002;2023-03-03T00:50:29;0.10;96.90
212;DHT22;16228;48.800;9.002;2023-03-03T00:53:06;0.00;96.90
212;DHT22;16228;48.800;9.002;2023-03-03T00:55:36;0.00;96.90
212;DHT22;16228;48.800;9.002;2023-03-03T00:58:05;-0.20;96.90
212;DHT22;16228;48.800;9.002;2023-03-03T01:00:33;-0.20;96.90
212;DHT22;16228;48.800;9.002;2023-03-03T01:03:03;-0.30;96.90
212;DHT22;16228;48.800;9.002;2023-03-03T01:05:31;-0.20;96.90
212;DHT22;16228;48.800;9.002;2023-03-03T01:07:58;-0.20;96.90
212;DHT22;16228;48.800;9.002;2023-03-03T01:10:28;-0.20;96.90
212;DHT22;16228;48.800;9.002;2023-03-03T01:12:56;-0.20;96.90
212;DHT22;16228;48.800;9.002;2023-03-03T01:15:26;-0.20;96.90
212;DHT22;16228;48.800;9.002;2023-03-03T01:17:54;-0.20;96.90
212;DHT22;16228;48.800;9.002;2023-03-03T01:20:23;-0.30;96.90
212;DHT22;16228;48.800;9.002;2023-03-03T01:22:50;-0.40;96.90
212;DHT22;16228;48.800;9.002;2023-03-03T01:25:17;-0.40;96.90
212;DHT22;16228;48.800;9.002;2023-03-03T01:27:44;-0.50;96.90
212;DHT22;16228;48.800;9.002;2023-03-03T01:30:12;-0.50;96.90
212;DHT22;16228;48.800;9.002;2023-03-03T01:32:40;-0.50;96.90
212;DHT22;16228;48.800;9.002;2023-03-03T01:35:08;-0.60;96.90
212;DHT22;16228;48.800;9.002;2023-03-03T01:37:37;-0.60;96.90
212;DHT22;16228;48.800;9.002;2023-03-03T01:40:06;-0.60;96.90
212;DHT22;16228;48.800;9.002;2023-03-03T01:42:34;-0.60;96.90
212;DHT22;16228;48.800;9.002;2023-03-03T01:45:22;-0.60;96.90
212;DHT22;16228;48.800;9.002;2023-03-03T01:47:58;-0.60;96.90
212;DHT22;16228;48.800;9.002;2023-03-03T01:50:34;-0.60;96.90
212;DHT22;16228;48.800;9.002;2023-03-03T01:53:05;-0.70;96.90
212;DHT22;16228;48.800;9.002;2023-03-03T01:55:39;-0.80;96.90
212;DHT22;16228;48.800;9.002;2023-03-03T01:58:09;-0.70;96.90
212;DHT22;16228;48.800;9.002;2023-03-03T02:00:39;-0.70;96.90
212;DHT22;16228;48.800;9.002;2023-03-03T02:03:07;-0.70;96.90
212;DHT22;16228;48.800;9.002;2023-03-03T02:05:35;-0.80;96.90
212;DHT22;16228;48.800;9.002;2023-03-03T02:08:04;-0.80;96.90
212;DHT22;16228;48.800;9.002;2023-03-03T02:10:33;-0.80;96.90
212;DHT22;16228;48.800;9.002;2023-03-03T02:13:00;-0.80;96.90
212;DHT22;16228;48.800;9.002;2023-03-03T02:15:29;-0.90;96.90
212;DHT22;16228;48.800;9.002;2023-03-03T02:17:59;-0.90;96.90
212;DHT22;16228;48.800;9.002;2023-03-03T02:20:38;-1.00;96.90
212;DHT22;16228;48.800;9.002;2023-03-03T02:23:15;-1.00;96.90
212;DHT22;16228;48.800;9.002;2023-03-03T02:25:50;-1.00;96.90
212;DHT22;16228;48.800;9.002;2023-03-03T02:28:21;-1.10;96.90
212;DHT22;16228;48.800;9.002;2023-03-03T02:30:52;-1.10;96.90
212;DHT22;16228;48.800;9.002;2023-03-03T02:33:20;-1.10;96.90
212;DHT22;16228;48.800;9.002;2023-03-03T02:35:48;-1.10;96.90
212;DHT22;16228;48.800;9.002;2023-03-03T02:38:20;-1.10;96.90
212;DHT22;16228;48.800;9.002;2023-03-03T02:40:59;-1.00;96.90
212;DHT22;16228;48.800;9.002;2023-03-03T02:43:34;-1.10;96.90
212;DHT22;16228;48.800;9.002;2023-03-03T02:46:02;-1.10;96.90
212;DHT22;16228;48.800;9.002;2023-03-03T02:48:30;-1.10;96.90
212;DHT22;16228;48.800;9.002;2023-03-03T02:50:57;-1.20;96.90
212;DHT22;16228;48.800;9.002;2023-03-03T02:53:24;-1.20;96.90
212;DHT22;16228;48.800;9.002;2023-03-03T02:55:51;-1.20;96.90
212;DHT22;16228;48.800;9.002;2023-03-03T02:58:19;-1.20;96.90
212;DHT22;16228;48.800;9.002;2023-03-03T03:00:47;-1.20;96.90
212;DHT22;16228;48.800;9.002;2023-03-03T03:03:15;-1.30;96.90
212;DHT22;16228;48.800;9.002;2023-03-03T03:05:42;-1.30;96.90
212;DHT22;16228;48.800;9.002;2023-03-03T03:08:09;-1.30;96.90
212;DHT22;16228;48.800;9.002;2023-03-03T03:10:36;-1.20;96.90
212;DHT22;16228;48.800;9.002;2023-03-03T03:13:04;-1.10;96.90
212;DHT22;16228;48.800;9.002;2023-03-03T03:15:31;-1.00;96.90
212;DHT22;16228;48.800;9.002;2023-03-03T03:17:59;-1.00;96.90
212;DHT22;16228;48.800;9.002;2023-03-03T03:20:27;-0.90;96.90
212;DHT22;16228;48.800;9.002;2023-03-03T03:22:54;-0.90;96.90
212;DHT22;16228;48.800;9.002;2023-03-03T03:25:21;-0.80;96.90
212;DHT22;16228;48.800;9.002;2023-03-03T03:27:48;-0.80;96.90
212;DHT22;16228;48.800;9.002;2023-03-03T03:30:15;-0.80;96.90
212;DHT22;16228;48.800;9.002;2023-03-03T03:32:45;-0.70;96.90
212;DHT22;16228;48.800;9.002;2023-03-03T03:35:14;-0.70;96.90
212;DHT22;16228;48.800;9.002;2023-03-03T03:37:42;-0.60;96.90
212;DHT22;16228;48.800;9.002;2023-03-03T03:40:10;-0.50;96.90
212;DHT22;16228;48.800;9.002;2023-03-03T03:42:38;-0.40;96.90
212;DHT22;16228;48.800;9.002;2023-03-03T03:45:07;-0.40;96.90
212;DHT22;16228;48.800;9.002;2023-03-03T03:47:34;-0.30;96.90
212;DHT22;16228;48.800;9.002;2023-03-03T03:50:01;-0.30;96.90
212;DHT22;16228;48.800;9.002;2023-03-03T03:52:30;-0.20;96.90
212;DHT22;16228;48.800;9.002;2023-03-03T03:54:57;-0.20;96.90
212;DHT22;16228;48.800;9.002;2023-03-03T03:57:24;-0.10;96.90
212;DHT22;16228;48.800;9.002;2023-03-03T03:59:51;-0.10;96.90
212;DHT22;16228;48.800;9.002;2023-03-03T04:02:18;0.00;96.90
212;DHT22;16228;48.800;9.002;2023-03-03T04:04:46;0.00;96.90
212;DHT22;16228;48.800;9.002;2023-03-03T04:07:13;0.10;96.90
212;DHT22;16228;48.800;9.002;2023-03-03T04:09:42;0.10;96.90
212;DHT22;16228;48.800;9.002;2023-03-03T04:12:09;0.10;96.90
212;DHT22;16228;48.800;9.002;2023-03-03T04:14:37;0.20;96.90
212;DHT22;16228;48.800;9.002;2023-03-03T04:17:04;0.20;96.90
212;DHT22;16228;48.800;9.002;2023-03-03T04:19:31;0.20;96.90
212;DHT22;16228;48.800;9.002;2023-03-03T04:21:58;0.20;96.90
212;DHT22;16228;48.800;9.002;2023-03-03T04:24:26;0.30;96.90
212;DHT22;16228;48.800;9.002;2023-03-03T04:26:54;0.40;96.90
212;DHT22;16228;48.800;9.002;2023-03-03T04:29:21;0.40;96.90
212;DHT22;16228;48.800;9.002;2023-03-03T04:31:48;0.50;96.90
212;DHT22;16228;48.800;9.002;2023-03-03T04:34:16;0.50;96.90
212;DHT22;16228;48.800;9.002;2023-03-03T04:36:43;0.60;96.90
212;DHT22;16228;48.800;9.002;2023-03-03T04:39:10;0.60;96.90
212;DHT22;16228;48.800;9.002;2023-03-03T04:41:38;0.60;96.90
212;DHT22;16228;48.800;9.002;2023-03-03T04:44:06;0.70;96.90
212;DHT22;16228;48.800;9.002;2023-03-03T04:46:33;0.70;96.90
212;DHT22;16228;48.800;9.002;2023-03-03T04:49:00;0.70;96.90
212;DHT22;16228;48.800;9.002;2023-03-03T04:51:28;0.80;96.90
212;DHT22;16228;48.800;9.002;2023-03-03T04:53:56;0.90;96.90
212;DHT22;16228;48.800;9.002;2023-03-03T04:56:23;0.90;96.90
212;DHT22;16228;48.800;9.002;2023-03-03T04:58:50;0.90;96.90
212;DHT22;16228;48.800;9.002;2023-03-03T05:01:19;0.90;96.90
212;DHT22;16228;48.800;9.002;2023-03-03T05:03:46;1.00;96.90
212;DHT22;16228;48.800;9.002;2023-03-03T05:06:13;1.00;96.90
212;DHT22;16228;48.800;9.002;2023-03-03T05:08:43;1.00;96.90
212;DHT22;16228;48.800;9.002;2023-03-03T05:11:14;1.00;96.90
212;DHT22;16228;48.800;9.002;2023-03-03T05:13:41;1.00;96.90
212;DHT22;16228;48.800;9.002;2023-03-03T05:16:08;1.10;96.90
212;DHT22;16228;48.800;9.002;2023-03-03T05:18:37;1.10;96.90
212;DHT22;16228;48.800;9.002;2023-03-03T05:21:05;1.10;96.90
212;DHT22;16228;48.800;9.002;2023-03-03T05:23:32;1.10;96.90
212;DHT22;16228;48.800;9.002;2023-03-03T05:25:59;1.20;96.90
212;DHT22;16228;48.800;9.002;2023-03-03T05:28:26;1.30;96.90
212;DHT22;16228;48.800;9.002;2023-03-03T05:30:54;1.30;96.90
212;DHT22;16228;48.800;9.002;2023-03-03T05:33:21;1.30;96.90
212;DHT22;16228;48.800;9.002;2023-03-03T05:35:52;1.30;96.90
212;DHT22;16228;48.800;9.002;2023-03-03T05:38:20;1.30;96.90
212;DHT22;16228;48.800;9.002;2023-03-03T05:40:47;1.30;96.90
212;DHT22;16228;48.800;9.002;2023-03-03T05:43:14;1.40;96.90
212;DHT22;16228;48.800;9.002;2023-03-03T05:45:41;1.40;96.90
212;DHT22;16228;48.800;9.002;2023-03-03T05:48:08;1.50;96.90
212;DHT22;16228;48.800;9.002;2023-03-03T05:50:37;1.40;96.90
212;DHT22;16228;48.800;9.002;2023-03-03T05:53:06;1.40;96.90
212;DHT22;16228;48.800;9.002;2023-03-03T05:55:33;1.30;96.90
212;DHT22;16228;48.800;9.002;2023-03-03T05:58:00;1.30;96.90
212;DHT22;16228;48.800;9.002;2023-03-03T06:00:28;1.40;96.90
212;DHT22;16228;48.800;9.002;2023-03-03T06:02:55;1.50;96.90
212;DHT22;16228;48.800;9.002;2023-03-03T06:05:22;1.50;96.90
212;DHT22;16228;48.800;9.002;2023-03-03T06:07:49;1.50;96.90
212;DHT22;16228;48.800;9.002;2023-03-03T06:10:18;1.50;96.90
212;DHT22;16228;48.800;9.002;2023-03-03T06:12:45;1.60;96.90
212;DHT22;16228;48.800;9.002;2023-03-03T06:15:12;1.60;96.90
212;DHT22;16228;48.800;9.002;2023-03-03T06:17:39;1.50;96.90
212;DHT22;16228;48.800;9.002;2023-03-03T06:20:07;1.50;96.90
212;DHT22;16228;48.800;9.002;2023-03-03T06:22:35;1.60;96.90
212;DHT22;16228;48.800;9.002;2023-03-03T06:25:02;1.70;96.90
212;DHT22;16228;48.800;9.002;2023-03-03T06:27:32;1.70;96.90
212;DHT22;16228;48.800;9.002;2023-03-03T06:29:59;1.70;96.90
212;DHT22;16228;48.800;9.002;2023-03-03T06:32:26;1.80;96.90
212;DHT22;16228;48.800;9.002;2023-03-03T06:34:54;1.80;96.90
212;DHT22;16228;48.800;9.002;2023-03-03T06:37:21;1.80;96.90
212;DHT22;16228;48.800;9.002;2023-03-03T06:39:48;1.90;96.90
212;DHT22;16228;48.800;9.002;2023-03-03T06:42:17;2.00;96.90
212;DHT22;16228;48.800;9.002;2023-03-03T06:44:47;2.00;96.90
212;DHT22;16228;48.800;9.002;2023-03-03T06:47:14;2.10;96.90
212;DHT22;16228;48.800;9.002;2023-03-03T06:49:41;2.10;96.90
212;DHT22;16228;48.800;9.002;2023-03-03T06:52:12;2.20;96.90
212;DHT22;16228;48.800;9.002;2023-03-03T06:54:40;2.20;96.90
212;DHT22;16228;48.800;9.002;2023-03-03T06:57:16;2.20;96.90
212;DHT22;16228;48.800;9.002;2023-03-03T06:59:45;2.30;96.90
212;DHT22;16228;48.800;9.002;2023-03-03T07:02:15;2.30;96.90
212;DHT22;16228;48.800;9.002;2023-03-03T07:04:44;2.40;96.90
212;DHT22;16228;48.800;9.002;2023-03-03T07:07:17;2.40;96.90
212;DHT22;16228;48.800;9.002;2023-03-03T07:09:47;2.50;96.90
212;DHT22;16228;48.800;9.002;2023-03-03T07:12:17;2.50;96.90
212;DHT22;16228;48.800;9.002;2023-03-03T07:14:47;2.50;96.90
212;DHT22;16228;48.800;9.002;2023-03-03T07:17:18;2.60;96.90
212;DHT22;16228;48.800;9.002;2023-03-03T07:19:46;2.60;96.90
212;DHT22;16228;48.800;9.002;2023-03-03T07:22:16;2.70;96.90
212;DHT22;16228;48.800;9.002;2023-03-03T07:24:45;2.60;96.90
212;DHT22;16228;48.800;9.002;2023-03-03T07:27:17;2.70;96.90
212;DHT22;16228;48.800;9.002;2023-03-03T07:29:48;2.80;96.90
212;DHT22;16228;48.800;9.002;2023-03-03T07:32:25;3.00;96.90
212;DHT22;16228;48.800;9.002;2023-03-03T07:34:54;3.10;96.90
212;DHT22;16228;48.800;9.002;2023-03-03T07:37:29;3.10;96.90
212;DHT22;16228;48.800;9.002;2023-03-03T07:39:57;3.20;96.90
212;DHT22;16228;48.800;9.002;2023-03-03T07:42:27;3.30;96.90
212;DHT22;16228;48.800;9.002;2023-03-03T07:44:58;3.50;96.90
212;DHT22;16228;48.800;9.002;2023-03-03T07:47:29;3.60;96.90
212;DHT22;16228;48.800;9.002;2023-03-03T07:49:59;3.70;96.90
212;DHT22;16228;48.800;9.002;2023-03-03T07:52:30;3.90;96.90
212;DHT22;16228;48.800;9.002;2023-03-03T07:55:00;4.00;96.90
212;DHT22;16228;48.800;9.002;2023-03-03T07:57:35;4.20;96.90
212;DHT22;16228;48.800;9.002;2023-03-03T08:03:17;4.40;96.90
212;DHT22;16228;48.800;9.002;2023-03-03T08:05:46;4.50;96.90
212;DHT22;16228;48.800;9.002;2023-03-03T08:08:28;4.70;96.90
212;DHT22;16228;48.800;9.002;2023-03-03T08:10:58;4.80;96.90
212;DHT22;16228;48.800;9.002;2023-03-03T08:13:28;5.00;96.90
212;DHT22;16228;48.800;9.002;2023-03-03T08:16:21;5.00;96.90
212;DHT22;16228;48.800;9.002;2023-03-03T08:18:52;5.10;96.90
212;DHT22;16228;48.800;9.002;2023-03-03T08:21:21;5.10;96.90
212;DHT22;16228;48.800;9.002;2023-03-03T08:23:49;5.30;96.90
212;DHT22;16228;48.800;9.002;2023-03-03T08:26:18;5.30;96.90
212;DHT22;16228;48.800;9.002;2023-03-03T08:28:46;5.20;96.90
212;DHT22;16228;48.800;9.002;2023-03-03T08:31:13;5.40;96.90
212;DHT22;16228;48.800;9.002;2023-03-03T08:33:42;5.60;96.90
212;DHT22;16228;48.800;9.002;2023-03-03T08:36:11;5.70;96.90
212;DHT22;16228;48.800;9.002;2023-03-03T08:38:39;5.80;96.90
212;DHT22;16228;48.800;9.002;2023-03-03T08:41:07;5.90;96.90
212;DHT22;16228;48.800;9.002;2023-03-03T08:43:37;6.00;96.90
212;DHT22;16228;48.800;9.002;2023-03-03T08:46:05;6.40;96.90
212;DHT22;16228;48.800;9.002;2023-03-03T08:48:34;6.90;96.90
212;DHT22;16228;48.800;9.002;2023-03-03T08:51:02;7.20;96.90
212;DHT22;16228;48.800;9.002;2023-03-03T08:53:31;7.30;96.90
212;DHT22;16228;48.800;9.002;2023-03-03T08:56:01;7.90;96.90
212;DHT22;16228;48.800;9.002;2023-03-03T08:58:28;8.90;96.90
212;DHT22;16228;48.800;9.002;2023-03-03T09:00:55;9.20;93.40
212;DHT22;16228;48.800;9.002;2023-03-03T09:03:24;9.50;92.40
212;DHT22;16228;48.800;9.002;2023-03-03T09:05:51;9.50;92.30
212;DHT22;16228;48.800;9.002;2023-03-03T09:08:18;9.40;91.80
212;DHT22;16228;48.800;9.002;2023-03-03T09:10:47;9.30;91.70
212;DHT22;16228;48.800;9.002;2023-03-03T09:13:16;9.40;91.80
212;DHT22;16228;48.800;9.002;2023-03-03T09:15:44;10.10;90.20
212;DHT22;16228;48.800;9.002;2023-03-03T09:18:16;11.00;88.80
212;DHT22;16228;48.800;9.002;2023-03-03T09:20:46;11.30;87.30
212;DHT22;16228;48.800;9.002;2023-03-03T09:23:34;11.30;87.10
212;DHT22;16228;48.800;9.002;2023-03-03T09:26:22;11.60;86.50
212;DHT22;16228;48.800;9.002;2023-03-03T09:28:54;12.00;83.60
212;DHT22;16228;48.800;9.002;2023-03-03T09:31:24;12.70;83.90
212;DHT22;16228;48.800;9.002;2023-03-03T09:33:53;14.10;80.70
212;DHT22;16228;48.800;9.002;2023-03-03T09:36:25;15.10;77.60
212;DHT22;16228;48.800;9.002;2023-03-03T09:38:53;15.00;75.80
212;DHT22;16228;48.800;9.002;2023-03-03T09:41:57;14.90;76.80
212;DHT22;16228;48.800;9.002;2023-03-03T09:44:58;14.70;76.50
212;DHT22;16228;48.800;9.002;2023-03-03T09:50:29;15.90;74.30
212;DHT22;16228;48.800;9.002;2023-03-03T09:53:09;16.30;73.60
212;DHT22;16228;48.800;9.002;2023-03-03T09:55:45;15.50;73.50
212;DHT22;16228;48.800;9.002;2023-03-03T09:58:31;15.30;74.50
212;DHT22;16228;48.800;9.002;2023-03-03T10:01:11;16.10;75.40
212;DHT22;16228;48.800;9.002;2023-03-03T10:04:10;17.30;71.60
212;DHT22;16228;48.800;9.002;2023-03-03T10:06:45;17.30;69.00
212;DHT22;16228;48.800;9.002;2023-03-03T10:09:35;17.90;69.30
212;DHT22;16228;48.800;9.002;2023-03-03T10:12:11;18.90;66.90
212;DHT22;16228;48.800;9.002;2023-03-03T10:15:00;18.90;66.40
212;DHT22;16228;48.800;9.002;2023-03-03T10:17:39;18.50;66.30
212;DHT22;16228;48.800;9.002;2023-03-03T10:20:22;18.20;66.20
212;DHT22;16228;48.800;9.002;2023-03-03T10:22:53;17.00;69.70
212;DHT22;16228;48.800;9.002;2023-03-03T10:25:27;16.50;71.70
212;DHT22;16228;48.800;9.002;2023-03-03T10:28:09;15.50;72.50
212;DHT22;16228;48.800;9.002;2023-03-03T10:30:49;14.70;74.90
212;DHT22;16228;48.800;9.002;2023-03-03T10:33:23;14.50;76.00
212;DHT22;16228;48.800;9.002;2023-03-03T10:36:19;14.70;76.60
212;DHT22;16228;48.800;9.002;2023-03-03T10:38:57;15.40;75.80
212;DHT22;16228;48.800;9.002;2023-03-03T10:41:41;16.90;73.30
212;DHT22;16228;48.800;9.002;2023-03-03T10:44:25;18.00;70.00
212;DHT22;16228;48.800;9.002;2023-03-03T10:47:02;18.30;68.30
212;DHT22;16228;48.800;9.002;2023-03-03T10:49:45;17.30;68.00
212;DHT22;16228;48.800;9.002;2023-03-03T10:52:26;16.10;71.00
212;DHT22;16228;48.800;9.002;2023-03-03T10:58:09;16.10;71.70
212;DHT22;16228;48.800;9.002;2023-03-03T11:00:42;16.90;71.70
212;DHT22;16228;48.800;9.002;2023-03-03T11:06:17;17.60;68.30
212;DHT22;16228;48.800;9.002;2023-03-03T11:08:51;15.90;71.70
212;DHT22;16228;48.800;9.002;2023-03-03T11:11:26;16.80;71.30
212;DHT22;16228;48.800;9.002;2023-03-03T11:13:59;17.60;70.90
212;DHT22;16228;48.800;9.002;2023-03-03T11:16:39;18.90;67.50
212;DHT22;16228;48.800;9.002;2023-03-03T11:19:25;19.50;66.90
212;DHT22;16228;48.800;9.002;2023-03-03T11:22:06;20.00;64.90
212;DHT22;16228;48.800;9.002;2023-03-03T11:24:50;19.40;67.20
212;DHT22;16228;48.800;9.002;2023-03-03T11:27:45;19.20;66.40
212;DHT22;16228;48.800;9.002;2023-03-03T11:30:30;19.10;65.90
212;DHT22;16228;48.800;9.002;2023-03-03T11:33:02;18.30;67.00
212;DHT22;16228;48.800;9.002;2023-03-03T11:35:37;16.90;70.10
212;DHT22;16228;48.800;9.002;2023-03-03T11:38:27;16.10;72.00
212;DHT22;16228;48.800;9.002;2023-03-03T11:41:00;14.80;73.30
212;DHT22;16228;48.800;9.002;2023-03-03T11:43:33;14.10;75.80
212;DHT22;16228;48.800;9.002;2023-03-03T11:46:06;13.50;76.20
212;DHT22;16228;48.800;9.002;2023-03-03T11:48:39;12.90;77.90
212;DHT22;16228;48.800;9.002;2023-03-03T11:51:12;12.40;78.80
212;DHT22;16228;48.800;9.002;2023-03-03T11:53:58;12.00;79.70
212;DHT22;16228;48.800;9.002;2023-03-03T11:56:32;12.00;81.90
212;DHT22;16228;48.800;9.002;2023-03-03T12:02:02;12.00;81.90
212;DHT22;16228;48.800;9.002;2023-03-03T12:04:34;12.00;81.20
212;DHT22;16228;48.800;9.002;2023-03-03T12:07:15;11.90;81.00
212;DHT22;16228;48.800;9.002;2023-03-03T12:09:54;11.90;80.60
212;DHT22;16228;48.800;9.002;2023-03-03T12:12:28;11.80;81.50
212;DHT22;16228;48.800;9.002;2023-03-03T12:15:22;12.00;81.60
212;DHT22;16228;48.800;9.002;2023-03-03T12:18:11;12.20;81.80
212;DHT22;16228;48.800;9.002;2023-03-03T12:20:47;12.20;80.80
212;DHT22;16228;48.800;9.002;2023-03-03T12:23:32;12.40;81.10
212;DHT22;16228;48.800;9.002;2023-03-03T12:26:08;12.70;80.70
212;DHT22;16228;48.800;9.002;2023-03-03T12:28:42;12.90;80.10
212;DHT22;16228;48.800;9.002;2023-03-03T12:31:19;12.90;78.90
212;DHT22;16228;48.800;9.002;2023-03-03T12:33:54;13.50;79.20
212;DHT22;16228;48.800;9.002;2023-03-03T12:36:49;13.80;76.30
212;DHT22;16228;48.800;9.002;2023-03-03T12:39:29;13.80;76.40
212;DHT22;16228;48.800;9.002;2023-03-03T12:42:09;13.90;76.40
212;DHT22;16228;48.800;9.002;2023-03-03T12:44:42;13.40;76.00
212;DHT22;16228;48.800;9.002;2023-03-03T12:47:15;13.40;77.10
212;DHT22;16228;48.800;9.002;2023-03-03T12:49:52;14.50;76.70
212;DHT22;16228;48.800;9.002;2023-03-03T12:52:29;15.50;74.30
212;DHT22;16228;48.800;9.002;2023-03-03T12:55:04;16.40;72.20
212;DHT22;16228;48.800;9.002;2023-03-03T12:57:41;16.60;70.60
212;DHT22;16228;48.800;9.002;2023-03-03T13:00:20;17.40;69.80
212;DHT22;16228;48.800;9.002;2023-03-03T13:02:58;17.90;67.70
212;DHT22;16228;48.800;9.002;2023-03-03T13:05:34;17.70;67.90
212;DHT22;16228;48.800;9.002;2023-03-03T13:08:29;17.70;67.30
212;DHT22;16228;48.800;9.002;2023-03-03T13:11:06;18.00;66.80
212;DHT22;16228;48.800;9.002;2023-03-03T13:13:44;17.90;67.10
212;DHT22;16228;48.800;9.002;2023-03-03T13:16:20;17.70;68.40
212;DHT22;16228;48.800;9.002;2023-03-03T13:18:52;17.70;66.90
212;DHT22;16228;48.800;9.002;2023-03-03T13:21:26;17.70;67.90
212;DHT22;16228;48.800;9.002;2023-03-03T13:24:01;17.80;67.10
212;DHT22;16228;48.800;9.002;2023-03-03T13:26:35;18.30;66.50
212;DHT22;16228;48.800;9.002;2023-03-03T13:29:11;18.30;65.80
212;DHT22;16228;48.800;9.002;2023-03-03T13:31:45;17.90;66.60
212;DHT22;16228;48.800;9.002;2023-03-03T13:34:22;17.70;67.00
212;DHT22;16228;48.800;9.002;2023-03-03T13:36:55;18.00;68.40
212;DHT22;16228;48.800;9.002;2023-03-03T13:39:27;18.20;65.80
212;DHT22;16228;48.800;9.002;2023-03-03T13:42:00;18.70;65.10
212;DHT22;16228;48.800;9.002;2023-03-03T13:44:33;18.80;64.20
212;DHT22;16228;48.800;9.002;2023-03-03T13:47:09;18.60;65.10
212;DHT22;16228;48.800;9.002;2023-03-03T13:49:57;18.70;65.40
212;DHT22;16228;48.800;9.002;2023-03-03T13:52:31;18.70;65.50
212;DHT22;16228;48.800;9.002;2023-03-03T13:55:09;19.00;64.20
212;DHT22;16228;48.800;9.002;2023-03-03T13:57:44;18.00;65.20
212;DHT22;16228;48.800;9.002;2023-03-03T14:00:23;17.80;66.50
212;DHT22;16228;48.800;9.002;2023-03-03T14:03:10;17.50;66.60
212;DHT22;16228;48.800;9.002;2023-03-03T14:05:44;17.10;66.40
212;DHT22;16228;48.800;9.002;2023-03-03T14:08:25;17.20;67.80
212;DHT22;16228;48.800;9.002;2023-03-03T14:11:03;17.70;66.60
212;DHT22;16228;48.800;9.002;2023-03-03T14:13:41;17.50;66.20
212;DHT22;16228;48.800;9.002;2023-03-03T14:16:16;17.00;67.10
212;DHT22;16228;48.800;9.002;2023-03-03T14:18:52;16.60;67.40
212;DHT22;16228;48.800;9.002;2023-03-03T14:21:26;16.40;68.80
212;DHT22;16228;48.800;9.002;2023-03-03T14:23:58;16.40;69.50
212;DHT22;16228;48.800;9.002;2023-03-03T14:26:29;16.80;69.20
212;DHT22;16228;48.800;9.002;2023-03-03T14:29:12;16.50;69.00
212;DHT22;16228;48.800;9.002;2023-03-03T14:31:43;16.70;69.30
212;DHT22;16228;48.800;9.002;2023-03-03T14:34:29;16.40;68.90
212;DHT22;16228;48.800;9.002;2023-03-03T14:37:17;15.70;69.70
212;DHT22;16228;48.800;9.002;2023-03-03T14:39:49;15.80;71.20
212;DHT22;16228;48.800;9.002;2023-03-03T14:42:31;15.60;70.40
212;DHT22;16228;48.800;9.002;2023-03-03T14:45:01;14.80;71.60
212;DHT22;16228;48.800;9.002;2023-03-03T14:47:33;14.00;73.40
212;DHT22;16228;48.800;9.002;2023-03-03T14:50:31;13.60;75.60
212;DHT22;16228;48.800;9.002;2023-03-03T14:53:13;13.00;77.40
212;DHT22;16228;48.800;9.002;2023-03-03T14:55:42;12.50;77.90
212;DHT22;16228;48.800;9.002;2023-03-03T14:58:26;12.10;80.10
212;DHT22;16228;48.800;9.002;2023-03-03T15:01:10;11.70;80.70
212;DHT22;16228;48.800;9.002;2023-03-03T15:03:44;11.60;80.80
212;DHT22;16228;48.800;9.002;2023-03-03T15:06:28;11.50;82.10
212;DHT22;16228;48.800;9.002;2023-03-03T15:08:56;11.40;83.40
212;DHT22;16228;48.800;9.002;2023-03-03T15:11:26;11.20;83.10
212;DHT22;16228;48.800;9.002;2023-03-03T15:14:09;11.20;83.00
212;DHT22;16228;48.800;9.002;2023-03-03T15:16:37;11.00;83.80
212;DHT22;16228;48.800;9.002;2023-03-03T15:19:37;10.90;84.20
212;DHT22;16228;48.800;9.002;2023-03-03T15:22:15;10.70;84.20
212;DHT22;16228;48.800;9.002;2023-03-03T15:24:51;10.70;85.00
212;DHT22;16228;48.800;9.002;2023-03-03T15:27:24;10.50;84.60
212;DHT22;16228;48.800;9.002;2023-03-03T15:30:01;10.50;84.80
212;DHT22;16228;48.800;9.002;2023-03-03T15:32:35;10.50;85.10
212;DHT22;16228;48.800;9.002;2023-03-03T15:35:17;10.50;85.70
212;DHT22;16228;48.800;9.002;2023-03-03T15:37:51;10.40;86.30
212;DHT22;16228;48.800;9.002;2023-03-03T15:40:24;10.30;86.20
212;DHT22;16228;48.800;9.002;2023-03-03T15:43:00;10.30;86.60
212;DHT22;16228;48.800;9.002;2023-03-03T15:45:32;10.20;86.90
212;DHT22;16228;48.800;9.002;2023-03-03T15:48:14;10.10;87.30
212;DHT22;16228;48.800;9.002;2023-03-03T15:50:51;10.00;87.90
212;DHT22;16228;48.800;9.002;2023-03-03T15:53:36;9.90;87.80
212;DHT22;16228;48.800;9.002;2023-03-03T15:56:17;9.80;88.50
212;DHT22;16228;48.800;9.002;2023-03-03T15:59:05;9.70;88.40
212;DHT22;16228;48.800;9.002;2023-03-03T16:01:36;9.50;88.70
212;DHT22;16228;48.800;9.002;2023-03-03T16:04:09;9.50;89.40
212;DHT22;16228;48.800;9.002;2023-03-03T16:06:46;9.50;89.40
212;DHT22;16228;48.800;9.002;2023-03-03T16:09:28;9.50;90.00
212;DHT22;16228;48.800;9.002;2023-03-03T16:12:04;9.40;89.60
212;DHT22;16228;48.800;9.002;2023-03-03T16:14:46;9.30;89.90
212;DHT22;16228;48.800;9.002;2023-03-03T16:17:25;9.30;90.10
212;DHT22;16228;48.800;9.002;2023-03-03T16:20:02;9.30;90.20
212;DHT22;16228;48.800;9.002;2023-03-03T16:22:40;9.20;90.70
212;DHT22;16228;48.800;9.002;2023-03-03T16:25:30;9.20;91.00
212;DHT22;16228;48.800;9.002;2023-03-03T16:28:04;9.20;90.70
212;DHT22;16228;48.800;9.002;2023-03-03T16:30:35;9.10;91.60
212;DHT22;16228;48.800;9.002;2023-03-03T16:33:16;9.00;91.90
212;DHT22;16228;48.800;9.002;2023-03-03T16:35:50;8.80;92.30
212;DHT22;16228;48.800;9.002;2023-03-03T16:38:24;8.70;92.60
212;DHT22;16228;48.800;9.002;2023-03-03T16:40:55;8.70;93.10
212;DHT22;16228;48.800;9.002;2023-03-03T16:43:30;8.70;93.20
212;DHT22;16228;48.800;9.002;2023-03-03T16:46:04;8.50;93.50
212;DHT22;16228;48.800;9.002;2023-03-03T16:48:40;8.40;94.00
212;DHT22;16228;48.800;9.002;2023-03-03T16:51:25;8.30;94.30
212;DHT22;16228;48.800;9.002;2023-03-03T16:54:02;8.10;95.00
212;DHT22;16228;48.800;9.002;2023-03-03T16:56:35;8.00;95.20
212;DHT22;16228;48.800;9.002;2023-03-03T16:59:26;7.90;95.80
212;DHT22;16228;48.800;9.002;2023-03-03T17:02:02;7.80;96.10
212;DHT22;16228;48.800;9.002;2023-03-03T17:04:38;7.70;96.50